Time;durP1;ratioP1;P1;durP2;ratioP2;P2;SDS_P1;SDS_P2;PMS_P1;PMS_P2;Temp;Humidity;BMP_temperature;BMP_pressure;BME280_temperature;BME280_humidity;BME280_pressure;Samples;Min_cycle;Max_cycle;Signal;HPM_P1;HPM_P2
2022/11/04 00:05:08;;;;;;;46.42;26.70;;;;;;;7.32;90.72;98597.00;4180909;83;20999;-85
2022/11/04 00:17:30;;;;;;;49.58;28.70;;;;;;;7.22;91.20;98570.39;4175270;83;21142;-85
2022/11/04 00:29:50;;;;;;;48.68;26.27;;;;;;;7.21;91.77;98551.09;4180481;83;21062;-85
2022/11/04 00:35:56;;;;;;;46.70;23.22;;;;;;;7.23;92.35;98540.64;4088487;85;21124;-84
2022/11/04 00:41:57;;;;;;;42.98;23.42;;;;;;;7.32;92.45;98541.97;4184453;83;21043;-84
2022/11/04 00:47:58;;;;;;;42.08;23.20;;;;;;;7.32;92.53;98541.97;4113492;84;21346;-84
2022/11/04 00:54:00;;;;;;;40.67;22.40;;;;;;;7.32;92.39;98522.12;4190523;84;21613;-85
2022/11/04 01:00:01;;;;;;;42.05;22.65;;;;;;;7.31;92.54;98519.96;4130757;84;21012;-84
2022/11/04 01:06:03;;;;;;;36.42;20.23;;;;;;;7.33;92.66;98510.86;4155607;84;21210;-84
2022/11/04 01:12:04;;;;;;;34.00;18.32;;;;;;;7.40;92.96;98514.28;4127396;85;21965;-84
2022/11/04 01:18:06;;;;;;;33.58;18.55;;;;;;;7.44;92.74;98500.13;4172880;83;21143;-85
2022/11/04 01:24:07;;;;;;;33.10;19.07;;;;;;;7.32;92.78;98492.17;4127847;84;21142;-84
2022/11/04 01:30:14;;;;;;;34.13;18.35;;;;;;;7.31;92.87;98494.09;4135987;84;21042;-84
2022/11/04 01:36:17;;;;;;;35.45;17.67;;;;;;;7.31;92.95;98491.37;4130467;84;21007;-84
2022/11/04 01:42:23;;;;;;;41.18;19.67;;;;;;;7.31;93.11;98475.63;4124564;84;21003;-84
2022/11/04 01:48:30;;;;;;;34.63;18.85;;;;;;;7.30;93.09;98469.95;4189874;83;21100;-85
2022/11/04 01:54:32;;;;;;;;;;;;;;;7.27;93.08;98459.80;4193524;83;21099;-85
2022/11/04 02:00:36;;;;;;;30.10;15.58;;;;;;;7.22;93.39;98444.56;4188554;83;20167;-84
2022/11/04 02:06:37;;;;;;;35.50;16.55;;;;;;;7.12;93.09;98426.72;4183221;83;21051;-84
2022/11/04 02:12:51;;;;;;;38.10;16.90;;;;;;;7.04;93.34;98414.94;4117519;84;21102;-85
2022/11/04 02:19:27;;;;;;;27.73;15.80;;;;;;;7.02;93.41;98419.16;4127918;84;22058;-84
2022/11/04 02:26:19;;;;;;;29.00;14.87;;;;;;;6.94;93.45;98407.98;4132565;84;21102;-85
2022/11/04 02:32:40;;;;;;;34.10;16.05;;;;;;;7.01;93.86;98401.27;4123495;84;21073;-85
2022/11/04 02:38:48;;;;;;;27.77;15.98;;;;;;;7.10;93.77;98389.55;4127821;84;21095;-86
2022/11/04 02:44:54;;;;;;;42.55;19.20;;;;;;;7.11;93.93;98385.09;4135689;84;21083;-84
2022/11/04 02:51:02;;;;;;;;;;;;;;;7.13;94.20;98381.44;4195168;83;21576;-84
2022/11/04 02:57:10;;;;;;;33.98;18.12;;;;;;;7.15;94.64;98378.35;4172985;83;20123;-84
2022/11/04 03:03:17;;;;;;;31.80;18.52;;;;;;;7.22;94.80;98370.30;4154211;83;21350;-84
2022/11/04 03:09:21;;;;;;;35.78;17.90;;;;;;;7.28;94.85;98372.91;4188186;83;21162;-84
2022/11/04 03:15:34;;;;;;;51.88;21.27;;;;;;;7.29;95.10;98377.19;4183027;84;21040;-84
2022/11/04 03:21:40;;;;;;;33.08;18.35;;;;;;;7.30;94.63;98372.74;4194026;84;21040;-84
2022/11/04 03:28:07;;;;;;;28.00;17.52;;;;;;;7.30;94.90;98378.19;4176446;83;21073;-84
2022/11/04 03:34:08;;;;;;;34.15;19.00;;;;;;;7.33;95.02;98365.79;4127809;84;21047;-84
2022/11/04 03:40:28;;;;;;;30.52;16.73;;;;;;;7.33;95.30;98350.81;4140026;84;21027;-84
2022/11/04 03:46:43;;;;;;;24.65;16.37;;;;;;;7.39;95.47;98355.55;4202431;84;22057;-85
2022/11/04 03:52:45;;;;;;;30.12;15.88;;;;;;;7.45;95.58;98345.92;4080678;84;28847;-84
2022/11/04 03:59:35;;;;;;;27.62;15.32;;;;;;;7.47;95.45;98340.11;4131442;84;21047;-84
2022/11/04 04:05:52;;;;;;;35.68;17.05;;;;;;;7.48;95.56;98342.47;4169121;83;21530;-84
2022/11/04 04:11:59;;;;;;;29.90;15.48;;;;;;;7.48;95.40;98330.20;4230206;83;21038;-85
2022/11/04 04:18:04;;;;;;;25.70;13.78;;;;;;;7.48;95.22;98319.88;4187694;82;21646;-84
2022/11/04 04:30:29;;;;;;;28.80;15.98;;;;;;;7.36;95.25;98313.32;4228747;83;20968;-85
2022/11/04 04:36:47;;;;;;;26.37;14.80;;;;;;;7.31;95.47;98304.11;4200207;83;21074;-84
2022/11/04 04:49:12;;;;;;;24.98;14.87;;;;;;;7.17;95.49;98296.52;4208389;83;21023;-84
2022/11/04 04:55:15;;;;;;;31.30;17.37;;;;;;;7.06;95.53;98287.46;4195479;83;21077;-85
2022/11/04 05:01:16;;;;;;;31.90;15.93;;;;;;;6.98;95.79;98287.72;4219270;83;21611;-84
2022/11/04 05:07:17;;;;;;;32.10;16.10;;;;;;;6.91;96.06;98286.24;4226140;83;20971;-85
2022/11/04 05:13:28;;;;;;;27.67;14.58;;;;;;;6.83;95.96;98281.28;4216495;83;21006;-84
2022/11/04 05:19:30;;;;;;;31.55;15.80;;;;;;;6.70;96.08;98269.63;4193163;83;21032;-84
2022/11/04 05:25:31;;;;;;;32.13;15.83;;;;;;;6.71;96.70;98280.71;4209942;83;21038;-84
2022/11/04 05:31:32;;;;;;;26.50;15.93;;;;;;;6.71;96.71;98263.83;4210189;83;21514;-85
2022/11/04 05:37:33;;;;;;;33.63;16.23;;;;;;;6.72;97.02;98277.63;4232904;83;21038;-84
2022/11/04 05:43:36;;;;;;;21.42;13.60;;;;;;;6.68;96.82;98270.00;4224865;83;22022;-84
2022/11/04 05:49:37;;;;;;;32.98;16.37;;;;;;;6.67;97.25;98270.37;4215398;83;21077;-84
2022/11/04 05:55:38;;;;;;;39.25;18.52;;;;;;;6.66;97.11;98266.06;4217219;83;21602;-85
2022/11/04 06:01:42;;;;;;;29.70;16.20;;;;;;;6.68;97.20;98261.05;4235668;81;21003;-84
2022/11/04 06:07:44;;;;;;;29.27;15.50;;;;;;;6.63;97.14;98259.43;4230094;83;21051;-83
2022/11/04 06:13:45;;;;;;;26.75;13.98;;;;;;;6.54;97.37;98256.20;4222616;83;21638;-84
2022/11/04 06:19:47;;;;;;;27.60;14.50;;;;;;;6.55;97.46;98276.78;4180960;83;21562;-83
2022/11/04 06:25:52;;;;;;;24.82;14.20;;;;;;;6.55;97.81;98276.78;4204580;83;21074;-84
2022/11/04 06:31:53;;;;;;;26.93;13.68;;;;;;;6.57;98.02;98270.41;4206533;81;21051;-84
2022/11/04 06:37:54;;;;;;;28.10;15.13;;;;;;;6.64;98.51;98288.19;4188195;83;21034;-84
2022/11/04 06:43:57;;;;;;;23.70;15.10;;;;;;;6.70;98.69;98280.52;4216288;83;21518;-84
2022/11/04 06:49:58;;;;;;;32.60;14.13;;;;;;;6.87;99.28;98284.06;4214792;83;21134;-84
2022/11/04 06:56:03;;;;;;;26.70;15.03;;;;;;;7.12;99.61;98285.19;4220199;83;21046;-85
2022/11/04 07:02:04;;;;;;;26.12;14.78;;;;;;;7.37;99.58;98274.83;4208343;83;21031;-84
2022/11/04 07:08:06;;;;;;;26.68;14.73;;;;;;;7.58;99.45;98270.98;4201829;83;21078;-85
2022/11/04 07:14:09;;;;;;;27.10;14.40;;;;;;;7.74;99.24;98262.02;4214512;83;21081;-84
2022/11/04 07:20:12;;;;;;;21.35;13.70;;;;;;;7.80;98.81;98271.41;4231925;83;21577;-84
2022/11/04 07:26:13;;;;;;;28.60;14.58;;;;;;;7.83;98.74;98259.77;4215830;83;21051;-84
2022/11/04 07:32:15;;;;;;;25.75;13.62;;;;;;;7.84;98.33;98257.27;4222731;83;21046;-84
2022/11/04 07:38:24;;;;;;;27.07;14.53;;;;;;;7.81;98.28;98251.17;4244733;81;21595;-84
2022/11/04 07:44:25;;;;;;;24.18;13.43;;;;;;;7.82;98.48;98242.43;4214510;83;21050;-84
2022/11/04 07:50:27;;;;;;;20.32;12.00;;;;;;;8.19;99.70;98239.06;4212533;83;21042;-84
2022/11/04 07:56:28;;;;;;;22.77;12.78;;;;;;;9.41;100.00;98219.93;4220250;83;21622;-84
2022/11/04 08:02:31;;;;;;;29.48;11.00;;;;;;;10.72;100.00;98229.84;4214026;83;21011;-84
2022/11/04 08:08:33;;;;;;;15.98;10.13;;;;;;;10.99;96.35;98227.44;4217707;83;21128;-85
2022/11/04 08:14:52;;;;;;;21.30;9.55;;;;;;;10.77;95.57;98216.34;4193842;83;21988;-84
2022/11/04 08:20:54;;;;;;;46.68;17.60;;;;;;;10.74;94.74;98209.69;4229262;83;21077;-84
2022/11/04 08:27:04;;;;;;;20.32;9.10;;;;;;;10.70;94.60;98195.81;4219799;83;20995;-84
2022/11/04 08:33:06;;;;;;;12.78;7.37;;;;;;;10.71;94.65;98197.39;4243923;83;20959;-84
2022/11/04 08:39:09;;;;;;;15.43;7.95;;;;;;;10.82;93.79;98191.31;4204648;83;21007;-85
2022/11/04 08:45:13;;;;;;;12.63;6.80;;;;;;;11.37;94.38;98190.88;4213290;83;21563;-85
2022/11/04 08:51:19;;;;;;;10.43;6.15;;;;;;;12.66;93.93;98174.66;4224379;83;21027;-86
2022/11/04 08:57:22;;;;;;;10.93;5.20;;;;;;;13.65;91.80;98166.02;4224966;83;21022;-86
2022/11/04 09:03:27;;;;;;;9.68;5.67;;;;;;;14.59;90.53;98176.12;4225090;83;21090;-86
2022/11/04 09:09:29;;;;;;;10.63;5.42;;;;;;;15.48;88.78;98169.06;4211611;83;21016;-86
2022/11/04 09:15:30;;;;;;;11.08;5.30;;;;;;;16.44;86.90;98157.34;4228988;83;21609;-86
2022/11/04 09:21:32;;;;;;;8.70;4.90;;;;;;;17.13;84.70;98143.61;4211268;83;21069;-87
2022/11/04 09:27:40;;;;;;;10.25;4.97;;;;;;;17.49;83.25;98131.55;4223744;83;21153;-86
2022/11/04 09:33:41;;;;;;;7.22;4.40;;;;;;;17.53;81.85;98122.52;4232028;83;21054;-87
2022/11/04 09:39:42;;;;;;;9.03;4.50;;;;;;;17.78;80.42;98110.08;4214740;83;21050;-86
2022/11/04 09:45:44;;;;;;;6.53;3.90;;;;;;;17.97;78.94;98110.45;4238199;83;22215;-87
2022/11/04 09:51:47;;;;;;;7.47;4.87;;;;;;;18.31;77.64;98093.88;4235903;83;21018;-87
2022/11/04 09:57:57;;;;;;;8.40;4.78;;;;;;;18.69;76.08;98093.17;4220865;83;22183;-87
2022/11/04 10:04:28;;;;;;;7.53;4.60;;;;;;;18.99;75.27;98097.24;4225483;83;21089;-85
2022/11/04 10:11:02;;;;;;;9.50;4.00;;;;;;;19.34;73.25;98089.77;4220488;83;21050;-84
2022/11/04 10:24:12;;;;;;;6.65;3.87;;;;;;;19.20;69.06;98074.27;4229881;83;21199;-84
2022/11/04 10:30:31;;;;;;;9.98;5.03;;;;;;;19.09;67.66;98066.33;4152641;83;21124;-85
2022/11/04 10:43:43;;;;;;;8.83;3.85;;;;;;;19.45;66.10;98056.84;4197556;83;20972;-84
2022/11/04 10:50:26;;;;;;;10.58;4.45;;;;;;;19.07;65.54;98061.09;4204208;83;22016;-83
2022/11/04 10:57:19;;;;;;;9.35;3.80;;;;;;;18.82;64.24;98062.62;4186587;83;21049;-86
2022/11/04 11:03:34;;;;;;;6.92;4.00;;;;;;;18.52;64.20;98057.95;4215131;83;21034;-86
2022/11/04 11:09:44;;;;;;;10.70;4.85;;;;;;;18.21;63.92;98049.32;4222743;81;21078;-86
2022/11/04 11:15:48;;;;;;;7.80;4.75;;;;;;;17.94;63.17;98047.66;4222845;83;21066;-86
2022/11/04 11:21:58;;;;;;;11.80;4.95;;;;;;;17.74;62.93;98041.61;4211637;83;21057;-87
2022/11/04 11:28:11;;;;;;;7.75;4.53;;;;;;;17.75;63.22;98038.39;4197866;83;21130;-87
2022/11/04 11:34:25;;;;;;;9.78;4.30;;;;;;;17.68;62.80;98036.47;4175254;83;21071;-85
2022/11/04 11:40:38;;;;;;;10.20;4.37;;;;;;;17.64;62.51;98024.12;4201451;83;21129;-86
2022/11/04 11:46:53;;;;;;;6.40;4.58;;;;;;;17.60;62.64;98015.18;4187621;83;20980;-87
2022/11/04 11:53:19;;;;;;;7.08;4.40;;;;;;;17.63;62.36;98013.50;4171936;83;21011;-86
2022/11/04 12:00:11;;;;;;;14.20;6.90;;;;;;;17.60;62.40;98006.09;4187597;83;21003;-86
2022/11/04 12:06:28;;;;;;;;;;;;;;;17.46;62.49;98000.39;4203449;83;21086;-86
2022/11/04 12:12:56;;;;;;;12.68;6.97;;;;;;;17.13;62.88;98001.20;4199326;83;20151;-85
2022/11/04 12:19:25;;;;;;;11.70;6.62;;;;;;;16.94;63.07;97991.74;4175714;83;21028;-86
2022/11/04 12:26:19;;;;;;;18.67;7.58;;;;;;;16.69;63.36;97991.11;4172390;83;21076;-86
2022/11/04 12:33:05;;;;;;;13.38;7.03;;;;;;;16.53;63.45;97988.41;4193034;83;21046;-86
2022/11/04 12:39:47;;;;;;;11.35;6.85;;;;;;;16.33;63.76;97980.08;4181937;83;21122;-87
2022/11/04 12:46:13;;;;;;;14.40;6.25;;;;;;;16.24;64.12;97974.42;4199080;83;21017;-86
2022/11/04 12:52:54;;;;;;;14.83;6.20;;;;;;;16.27;64.55;97982.58;4162030;83;21096;-86
2022/11/04 12:59:35;;;;;;;19.30;6.97;;;;;;;16.30;64.66;97974.80;4189154;83;21495;-86
2022/11/04 13:12:26;;;;;;;16.57;6.95;;;;;;;16.18;64.96;97981.66;4166644;83;21079;-86
2022/11/04 13:18:36;;;;;;;19.42;7.70;;;;;;;16.14;65.12;97974.88;4187908;83;21031;-86
2022/11/04 13:24:48;;;;;;;15.75;6.80;;;;;;;16.09;65.33;97976.00;4192613;83;21041;-86
2022/11/04 13:30:56;;;;;;;21.75;7.78;;;;;;;15.96;65.34;97981.46;4073739;86;21038;-86
2022/11/04 13:37:13;;;;;;;16.32;6.03;;;;;;;15.85;65.54;97985.10;4036748;86;21166;-85
2022/11/04 13:43:48;;;;;;;14.03;6.27;;;;;;;15.84;65.87;97984.16;4028074;87;21023;-86
2022/11/04 13:49:54;;;;;;;13.32;6.40;;;;;;;15.75;66.27;97987.55;4167888;83;21495;-86
2022/11/04 13:55:56;;;;;;;21.65;6.35;;;;;;;15.56;66.25;97983.69;4192734;83;21402;-86
2022/11/04 14:09:34;;;;;;;14.73;6.03;;;;;;;15.35;66.70;97995.19;4183022;83;21561;-87
2022/11/04 14:16:18;;;;;;;17.77;6.47;;;;;;;15.31;66.94;97993.12;4165369;83;21376;-86
2022/11/04 14:22:19;;;;;;;13.43;6.72;;;;;;;15.26;67.09;97989.50;4175709;83;21098;-84
2022/11/04 14:28:28;;;;;;;15.08;6.47;;;;;;;15.19;67.20;97989.66;4172269;83;21972;-87
2022/11/04 14:34:36;;;;;;;12.75;6.08;;;;;;;15.15;67.37;97995.86;4161687;84;21058;-85
2022/11/04 14:47:36;;;;;;;13.48;6.22;;;;;;;14.98;67.66;97983.27;4178372;83;21046;-85
2022/11/04 14:53:37;;;;;;;14.17;8.30;;;;;;;14.88;67.89;97984.85;4181111;83;21046;-85
2022/11/04 14:59:39;;;;;;;22.45;9.38;;;;;;;14.81;68.26;97987.19;4181960;83;21054;-84
2022/11/04 15:05:52;;;;;;;18.05;8.95;;;;;;;14.76;68.61;97999.30;4180343;83;21023;-84
2022/11/04 15:18:33;;;;;;;14.40;7.20;;;;;;;14.53;69.62;97995.27;4193756;83;21190;-84
2022/11/04 15:24:34;;;;;;;13.93;7.20;;;;;;;14.35;70.97;98003.09;4195473;83;21062;-84
2022/11/04 15:30:35;;;;;;;13.65;7.17;;;;;;;14.23;71.93;97999.73;4197488;83;21796;-86
2022/11/04 15:36:46;;;;;;;18.35;7.90;;;;;;;14.05;72.35;98003.43;4197246;83;21072;-85
2022/11/04 15:42:52;;;;;;;18.27;8.00;;;;;;;13.91;72.38;97996.81;4182469;83;20983;-85
2022/11/04 15:49:06;;;;;;;12.70;8.00;;;;;;;13.73;73.18;97991.45;4182809;83;21924;-82
2022/11/04 15:55:27;;;;;;;17.12;10.70;;;;;;;13.50;74.08;97977.70;4056132;86;21055;-84
2022/11/04 16:01:28;;;;;;;38.40;21.15;;;;;;;13.45;75.10;97983.06;4193271;83;21007;-85
2022/11/04 16:13:51;;;;;;;32.60;15.95;;;;;;;13.07;76.49;97968.56;4175406;83;21609;-85
2022/11/04 16:20:03;;;;;;;23.22;12.25;;;;;;;12.99;77.27;97976.11;4198007;83;21047;-85
2022/11/04 16:26:06;;;;;;;36.73;18.55;;;;;;;12.93;77.78;97965.41;4178144;83;21976;-85
2022/11/04 16:32:32;;;;;;;46.28;24.65;;;;;;;12.70;78.06;97958.46;4191562;83;21023;-85
2022/11/04 16:38:33;;;;;;;43.05;23.42;;;;;;;12.57;78.79;97964.34;4181529;83;21032;-84
2022/11/04 16:44:35;;;;;;;41.00;21.75;;;;;;;12.46;79.65;97951.35;4179750;83;21078;-85
2022/11/04 16:50:37;;;;;;;34.38;21.60;;;;;;;12.33;79.92;97947.59;4177928;83;21106;-84
2022/11/04 17:03:44;;;;;;;31.65;16.10;;;;;;;12.26;80.86;97952.56;4173435;83;21909;-84
2022/11/04 17:09:46;;;;;;;36.90;20.43;;;;;;;12.26;81.12;97947.69;4192317;83;22027;-84
2022/11/04 17:15:50;;;;;;;37.48;22.37;;;;;;;12.23;80.95;97958.12;4174894;83;21007;-84
2022/11/04 17:21:51;;;;;;;29.98;18.98;;;;;;;12.23;82.09;97956.13;4194113;83;21705;-84
2022/11/04 17:27:53;;;;;;;32.42;17.30;;;;;;;12.17;82.95;97957.77;4164441;83;21019;-85
2022/11/04 17:34:00;;;;;;;39.00;20.08;;;;;;;12.11;83.51;97969.61;4188372;83;21101;-84
2022/11/04 17:47:06;;;;;;;37.17;20.55;;;;;;;12.10;84.54;97979.82;4196798;83;21087;-85
2022/11/04 17:53:22;;;;;;;45.73;23.27;;;;;;;12.02;85.32;97972.06;4181709;83;22361;-86
2022/11/04 17:59:24;;;;;;;40.80;23.47;;;;;;;11.87;86.06;97966.55;4186287;83;21368;-85
2022/11/04 18:05:31;;;;;;;41.37;22.55;;;;;;;11.80;86.92;97978.37;4198427;83;21060;-84
2022/11/04 18:18:53;;;;;;;;;;;;;;;11.69;88.93;97970.84;4200104;83;20172;-84
2022/11/04 18:24:54;;;;;;;44.90;24.40;;;;;;;11.63;89.46;97965.61;4189223;83;20117;-84
2022/11/04 18:30:58;;;;;;;45.92;26.52;;;;;;;11.62;89.73;97971.48;4187627;83;21050;-85
2022/11/04 18:37:04;;;;;;;47.10;28.02;;;;;;;11.57;90.09;97966.42;4202545;83;22016;-85
2022/11/04 18:43:31;;;;;;;50.92;27.27;;;;;;;11.47;90.56;97965.91;4178023;84;21071;-85
2022/11/04 18:56:28;;;;;;;46.20;26.85;;;;;;;11.37;91.80;97963.45;4145191;84;21023;-84
2022/11/04 19:02:55;;;;;;;46.85;27.98;;;;;;;11.38;92.17;97970.51;4151697;83;21015;-83
2022/11/04 19:09:18;;;;;;;60.43;34.67;;;;;;;11.32;92.97;97974.88;4166824;83;21056;-84
2022/11/04 19:15:29;;;;;;;66.35;38.88;;;;;;;11.28;92.15;97987.80;4208298;83;20995;-83
2022/11/04 19:21:35;;;;;;;66.62;40.40;;;;;;;11.13;93.57;97993.78;4154760;83;21062;-84
2022/11/04 19:27:41;;;;;;;67.47;40.10;;;;;;;11.16;94.48;97999.25;4172830;83;22391;-83
2022/11/04 19:33:42;;;;;;;50.98;31.25;;;;;;;11.13;94.91;97999.44;4188670;83;21049;-85
2022/11/04 19:39:51;;;;;;;74.05;43.38;;;;;;;11.10;95.37;98007.70;4194245;83;21596;-84
2022/11/04 19:46:08;;;;;;;77.82;46.50;;;;;;;11.06;95.15;98011.04;4174509;83;21009;-84
2022/11/04 19:59:26;;;;;;;75.70;44.95;;;;;;;11.04;96.71;97999.70;4147431;84;21078;-84
2022/11/04 20:06:02;;;;;;;76.40;42.35;;;;;;;11.03;97.12;97994.05;4178719;83;21060;-84
2022/11/04 20:19:14;;;;;;;60.48;36.95;;;;;;;11.02;98.29;98000.10;4181580;83;21078;-84
2022/11/04 20:32:06;;;;;;;55.83;34.67;;;;;;;11.03;99.54;98000.89;4169530;84;20150;-83
2022/11/04 20:51:59;;;;;;;55.33;35.73;;;;;;;11.01;99.73;98047.06;4189907;83;21039;-84
2022/11/04 20:58:24;;;;;;;53.87;34.88;;;;;;;11.07;99.93;98048.98;4209182;83;21034;-83
2022/11/04 21:04:28;;;;;;;57.40;36.20;;;;;;;11.02;99.76;98060.96;4166820;83;21039;-83
2022/11/04 21:10:54;;;;;;;64.67;37.55;;;;;;;10.98;100.00;98066.45;4210693;83;22049;-83
2022/11/04 21:17:07;;;;;;;56.77;34.35;;;;;;;10.97;100.00;98061.38;4158655;83;21031;-83
2022/11/04 21:23:10;;;;;;;56.65;36.13;;;;;;;10.99;100.00;98070.73;4172132;83;20991;-84
2022/11/04 21:29:18;;;;;;;62.70;36.73;;;;;;;11.03;100.00;98075.63;4203995;83;21571;-83
2022/11/04 21:35:26;;;;;;;57.17;36.05;;;;;;;10.99;100.00;98070.73;4160103;83;21081;-84
2022/11/04 21:41:40;;;;;;;57.55;35.35;;;;;;;10.93;100.00;98078.42;4190416;83;21076;-84
2022/11/04 21:47:38;;;;;;;64.22;38.83;;;;;;;10.96;100.00;98076.26;4098848;84;21074;-83
2022/11/04 21:54:05;;;;;;;64.82;39.25;;;;;;;10.96;100.00;98081.13;4171932;83;21093;-83
2022/11/04 22:00:17;;;;;;;60.15;35.55;;;;;;;10.95;100.00;98080.94;4083007;84;21056;-83
2022/11/04 22:06:19;;;;;;;59.00;36.00;;;;;;;10.98;100.00;98092.47;4183946;83;21060;-84
2022/11/04 22:12:21;;;;;;;63.35;39.83;;;;;;;10.99;100.00;98092.64;4201920;83;21574;-83
2022/11/04 22:18:36;;;;;;;59.42;38.50;;;;;;;10.97;100.00;98090.91;4128061;84;21024;-84
2022/11/04 22:25:14;;;;;;;56.33;35.75;;;;;;;10.92;100.00;98096.80;4127329;84;21596;-83
2022/11/04 22:31:24;;;;;;;79.53;48.63;;;;;;;10.94;100.00;98099.93;4130808;84;22037;-83
2022/11/04 22:38:12;;;;;;;75.40;43.73;;;;;;;10.88;100.00;98091.16;4105887;84;21037;-83
2022/11/04 22:44:23;;;;;;;70.00;41.20;;;;;;;10.75;100.00;98089.45;4018236;86;21090;-82
2022/11/04 22:50:32;;;;;;;63.15;38.92;;;;;;;10.77;100.00;98091.78;4176788;83;21084;-83
2022/11/04 22:56:55;;;;;;;56.53;34.95;;;;;;;10.76;100.00;98084.73;4120519;84;21034;-83
2022/11/04 23:03:23;;;;;;;55.75;33.98;;;;;;;10.76;100.00;98079.26;4174477;83;21023;-83
2022/11/04 23:09:24;;;;;;;54.65;34.50;;;;;;;10.68;100.00;98065.44;4149881;83;21000;-83
